sensor_id;sensor_type;location;lat;lon;timestamp;temperature;humidity
54680;DHT22;40578;53.178;5.846;2023-08-20T00:00:28;15.10;99.90
54680;DHT22;40578;53.178;5.846;2023-08-20T00:03:09;15.00;99.90
54680;DHT22;40578;53.178;5.846;2023-08-20T00:05:36;15.00;99.90
54680;DHT22;40578;53.178;5.846;2023-08-20T00:08:02;14.90;99.90
54680;DHT22;40578;53.178;5.846;2023-08-20T00:10:28;14.80;99.90
54680;DHT22;40578;53.178;5.846;2023-08-20T00:12:53;14.70;99.90
54680;DHT22;40578;53.178;5.846;2023-08-20T00:15:19;14.70;99.90
54680;DHT22;40578;53.178;5.846;2023-08-20T00:17:45;14.60;99.90
54680;DHT22;40578;53.178;5.846;2023-08-20T00:20:13;14.60;99.90
54680;DHT22;40578;53.178;5.846;2023-08-20T00:22:42;14.60;99.90
54680;DHT22;40578;53.178;5.846;2023-08-20T00:25:13;14.60;99.90
54680;DHT22;40578;53.178;5.846;2023-08-20T00:27:40;14.50;99.90
54680;DHT22;40578;53.178;5.846;2023-08-20T00:30:06;14.50;99.90
54680;DHT22;40578;53.178;5.846;2023-08-20T00:32:32;14.40;99.90
54680;DHT22;40578;53.178;5.846;2023-08-20T00:34:58;14.40;99.90
54680;DHT22;40578;53.178;5.846;2023-08-20T00:37:23;14.40;99.90
54680;DHT22;40578;53.178;5.846;2023-08-20T00:39:49;14.40;99.90
54680;DHT22;40578;53.178;5.846;2023-08-20T00:42:15;15.00;99.90
54680;DHT22;40578;53.178;5.846;2023-08-20T00:44:41;14.50;99.90
54680;DHT22;40578;53.178;5.846;2023-08-20T00:47:09;14.40;99.90
54680;DHT22;40578;53.178;5.846;2023-08-20T00:49:35;14.40;99.90
54680;DHT22;40578;53.178;5.846;2023-08-20T00:52:01;14.40;99.90
54680;DHT22;40578;53.178;5.846;2023-08-20T00:54:27;14.40;99.90
54680;DHT22;40578;53.178;5.846;2023-08-20T00:56:54;14.30;99.90
54680;DHT22;40578;53.178;5.846;2023-08-20T00:59:20;14.30;99.90
54680;DHT22;40578;53.178;5.846;2023-08-20T01:01:46;14.30;99.90
54680;DHT22;40578;53.178;5.846;2023-08-20T01:04:11;14.30;99.90
54680;DHT22;40578;53.178;5.846;2023-08-20T01:12:06;14.20;99.90
54680;DHT22;40578;53.178;5.846;2023-08-20T01:14:32;14.20;99.90
54680;DHT22;40578;53.178;5.846;2023-08-20T01:16:57;14.20;99.90
54680;DHT22;40578;53.178;5.846;2023-08-20T01:19:23;14.30;99.90
54680;DHT22;40578;53.178;5.846;2023-08-20T01:24:47;14.30;99.90
54680;DHT22;40578;53.178;5.846;2023-08-20T01:30:01;14.40;99.90
54680;DHT22;40578;53.178;5.846;2023-08-20T01:32:28;14.40;99.90
54680;DHT22;40578;53.178;5.846;2023-08-20T01:34:54;14.50;99.90
54680;DHT22;40578;53.178;5.846;2023-08-20T01:37:21;14.70;99.90
54680;DHT22;40578;53.178;5.846;2023-08-20T01:39:47;14.60;99.90
54680;DHT22;40578;53.178;5.846;2023-08-20T01:42:13;14.50;99.90
54680;DHT22;40578;53.178;5.846;2023-08-20T01:44:38;14.40;99.90
54680;DHT22;40578;53.178;5.846;2023-08-20T01:47:04;14.40;99.90
54680;DHT22;40578;53.178;5.846;2023-08-20T01:49:30;14.40;99.90
54680;DHT22;40578;53.178;5.846;2023-08-20T01:51:55;14.30;99.90
54680;DHT22;40578;53.178;5.846;2023-08-20T01:54:21;14.30;99.90
54680;DHT22;40578;53.178;5.846;2023-08-20T01:56:47;14.20;99.90
54680;DHT22;40578;53.178;5.846;2023-08-20T01:59:12;14.20;99.90
54680;DHT22;40578;53.178;5.846;2023-08-20T02:01:38;14.20;99.90
54680;DHT22;40578;53.178;5.846;2023-08-20T02:04:03;14.20;99.90
54680;DHT22;40578;53.178;5.846;2023-08-20T02:06:29;14.20;99.90
54680;DHT22;40578;53.178;5.846;2023-08-20T02:08:54;14.10;99.90
54680;DHT22;40578;53.178;5.846;2023-08-20T02:11:20;14.10;99.90
54680;DHT22;40578;53.178;5.846;2023-08-20T02:13:46;14.20;99.90
54680;DHT22;40578;53.178;5.846;2023-08-20T02:16:11;14.20;99.90
54680;DHT22;40578;53.178;5.846;2023-08-20T02:18:37;14.20;99.90
54680;DHT22;40578;53.178;5.846;2023-08-20T02:21:03;14.30;99.90
54680;DHT22;40578;53.178;5.846;2023-08-20T02:23:28;15.20;99.90
54680;DHT22;40578;53.178;5.846;2023-08-20T02:25:54;14.30;99.90
54680;DHT22;40578;53.178;5.846;2023-08-20T02:28:19;15.10;99.90
54680;DHT22;40578;53.178;5.846;2023-08-20T02:30:46;14.40;99.90
54680;DHT22;40578;53.178;5.846;2023-08-20T02:33:12;14.30;99.90
54680;DHT22;40578;53.178;5.846;2023-08-20T02:35:41;14.30;99.90
54680;DHT22;40578;53.178;5.846;2023-08-20T02:38:07;14.40;99.90
54680;DHT22;40578;53.178;5.846;2023-08-20T02:40:39;14.30;99.90
54680;DHT22;40578;53.178;5.846;2023-08-20T02:43:05;14.20;99.90
54680;DHT22;40578;53.178;5.846;2023-08-20T02:45:31;14.30;99.90
54680;DHT22;40578;53.178;5.846;2023-08-20T02:47:57;14.20;99.90
54680;DHT22;40578;53.178;5.846;2023-08-20T02:50:22;14.20;99.90
54680;DHT22;40578;53.178;5.846;2023-08-20T02:52:48;14.20;99.90
54680;DHT22;40578;53.178;5.846;2023-08-20T02:55:14;14.20;99.90
54680;DHT22;40578;53.178;5.846;2023-08-20T02:57:39;14.10;99.90
54680;DHT22;40578;53.178;5.846;2023-08-20T03:00:05;14.10;99.90
54680;DHT22;40578;53.178;5.846;2023-08-20T03:02:35;14.10;99.90
54680;DHT22;40578;53.178;5.846;2023-08-20T03:05:01;14.10;99.90
54680;DHT22;40578;53.178;5.846;2023-08-20T03:07:26;14.10;99.90
54680;DHT22;40578;53.178;5.846;2023-08-20T03:09:52;14.10;99.90
54680;DHT22;40578;53.178;5.846;2023-08-20T03:12:20;14.00;99.90
54680;DHT22;40578;53.178;5.846;2023-08-20T03:14:45;14.10;99.90
54680;DHT22;40578;53.178;5.846;2023-08-20T03:17:12;14.00;99.90
54680;DHT22;40578;53.178;5.846;2023-08-20T03:19:57;14.10;99.90
54680;DHT22;40578;53.178;5.846;2023-08-20T03:22:23;14.00;99.90
54680;DHT22;40578;53.178;5.846;2023-08-20T03:24:49;14.00;99.90
54680;DHT22;40578;53.178;5.846;2023-08-20T03:27:16;14.10;99.90
54680;DHT22;40578;53.178;5.846;2023-08-20T03:29:41;14.10;99.90
54680;DHT22;40578;53.178;5.846;2023-08-20T03:32:07;14.10;99.90
54680;DHT22;40578;53.178;5.846;2023-08-20T03:34:33;14.10;99.90
54680;DHT22;40578;53.178;5.846;2023-08-20T03:36:58;14.10;99.90
54680;DHT22;40578;53.178;5.846;2023-08-20T03:39:24;14.10;99.90
54680;DHT22;40578;53.178;5.846;2023-08-20T03:41:52;14.00;99.90
54680;DHT22;40578;53.178;5.846;2023-08-20T03:44:18;14.00;99.90
54680;DHT22;40578;53.178;5.846;2023-08-20T03:46:44;13.90;99.90
54680;DHT22;40578;53.178;5.846;2023-08-20T03:49:10;13.90;99.90
54680;DHT22;40578;53.178;5.846;2023-08-20T03:51:36;13.90;99.90
54680;DHT22;40578;53.178;5.846;2023-08-20T03:54:02;13.80;99.90
54680;DHT22;40578;53.178;5.846;2023-08-20T03:56:28;13.80;99.90
54680;DHT22;40578;53.178;5.846;2023-08-20T03:58:54;13.80;99.90
54680;DHT22;40578;53.178;5.846;2023-08-20T04:01:20;13.80;99.90
54680;DHT22;40578;53.178;5.846;2023-08-20T04:03:46;13.80;99.90
54680;DHT22;40578;53.178;5.846;2023-08-20T04:06:12;13.80;99.90
54680;DHT22;40578;53.178;5.846;2023-08-20T04:08:38;13.80;99.90
54680;DHT22;40578;53.178;5.846;2023-08-20T04:11:03;13.80;99.90
54680;DHT22;40578;53.178;5.846;2023-08-20T04:13:30;13.80;99.90
54680;DHT22;40578;53.178;5.846;2023-08-20T04:15:56;13.80;99.90
54680;DHT22;40578;53.178;5.846;2023-08-20T04:18:21;13.80;99.90
54680;DHT22;40578;53.178;5.846;2023-08-20T04:20:50;14.00;99.90
54680;DHT22;40578;53.178;5.846;2023-08-20T04:23:16;13.90;99.90
54680;DHT22;40578;53.178;5.846;2023-08-20T04:25:42;13.90;99.90
54680;DHT22;40578;53.178;5.846;2023-08-20T04:28:07;13.90;99.90
54680;DHT22;40578;53.178;5.846;2023-08-20T04:30:35;13.90;99.90
54680;DHT22;40578;53.178;5.846;2023-08-20T04:33:01;13.80;99.90
54680;DHT22;40578;53.178;5.846;2023-08-20T04:35:27;13.80;99.90
54680;DHT22;40578;53.178;5.846;2023-08-20T04:37:52;13.80;99.90
54680;DHT22;40578;53.178;5.846;2023-08-20T04:40:18;13.80;99.90
54680;DHT22;40578;53.178;5.846;2023-08-20T04:42:44;13.90;99.90
54680;DHT22;40578;53.178;5.846;2023-08-20T04:45:10;13.90;99.90
54680;DHT22;40578;53.178;5.846;2023-08-20T04:47:36;14.00;99.90
54680;DHT22;40578;53.178;5.846;2023-08-20T04:50:02;13.80;99.90
54680;DHT22;40578;53.178;5.846;2023-08-20T04:52:28;13.80;99.90
54680;DHT22;40578;53.178;5.846;2023-08-20T04:54:54;13.90;99.90
54680;DHT22;40578;53.178;5.846;2023-08-20T04:57:19;14.10;99.90
54680;DHT22;40578;53.178;5.846;2023-08-20T04:59:45;14.10;99.90
54680;DHT22;40578;53.178;5.846;2023-08-20T05:02:11;14.10;99.90
54680;DHT22;40578;53.178;5.846;2023-08-20T05:04:38;14.20;99.90
54680;DHT22;40578;53.178;5.846;2023-08-20T05:07:04;14.20;99.90
54680;DHT22;40578;53.178;5.846;2023-08-20T05:09:30;14.20;99.90
54680;DHT22;40578;53.178;5.846;2023-08-20T05:11:56;14.20;99.90
54680;DHT22;40578;53.178;5.846;2023-08-20T05:14:21;14.30;99.90
54680;DHT22;40578;53.178;5.846;2023-08-20T05:16:47;14.30;99.90
54680;DHT22;40578;53.178;5.846;2023-08-20T05:19:13;14.40;99.90
54680;DHT22;40578;53.178;5.846;2023-08-20T05:21:38;14.50;99.90
54680;DHT22;40578;53.178;5.846;2023-08-20T05:24:04;14.80;99.90
54680;DHT22;40578;53.178;5.846;2023-08-20T05:26:30;14.90;99.90
54680;DHT22;40578;53.178;5.846;2023-08-20T05:28:55;14.90;99.90
54680;DHT22;40578;53.178;5.846;2023-08-20T05:31:21;15.10;99.90
54680;DHT22;40578;53.178;5.846;2023-08-20T05:33:47;15.00;99.90
54680;DHT22;40578;53.178;5.846;2023-08-20T05:36:13;15.00;99.90
54680;DHT22;40578;53.178;5.846;2023-08-20T05:38:39;15.20;99.90
54680;DHT22;40578;53.178;5.846;2023-08-20T05:41:05;15.30;99.90
54680;DHT22;40578;53.178;5.846;2023-08-20T05:43:31;15.30;99.90
54680;DHT22;40578;53.178;5.846;2023-08-20T05:45:56;15.30;99.90
54680;DHT22;40578;53.178;5.846;2023-08-20T05:48:22;15.40;99.90
54680;DHT22;40578;53.178;5.846;2023-08-20T05:50:47;15.40;99.90
54680;DHT22;40578;53.178;5.846;2023-08-20T05:53:13;15.50;99.90
54680;DHT22;40578;53.178;5.846;2023-08-20T05:55:39;15.50;99.90
54680;DHT22;40578;53.178;5.846;2023-08-20T05:58:05;15.70;99.90
54680;DHT22;40578;53.178;5.846;2023-08-20T06:00:30;15.70;99.90
54680;DHT22;40578;53.178;5.846;2023-08-20T06:02:56;15.90;99.90
54680;DHT22;40578;53.178;5.846;2023-08-20T06:05:22;15.80;99.90
54680;DHT22;40578;53.178;5.846;2023-08-20T06:07:47;15.80;99.90
54680;DHT22;40578;53.178;5.846;2023-08-20T06:10:13;15.90;99.90
54680;DHT22;40578;53.178;5.846;2023-08-20T06:12:39;16.00;99.90
54680;DHT22;40578;53.178;5.846;2023-08-20T06:15:05;16.30;99.90
54680;DHT22;40578;53.178;5.846;2023-08-20T06:17:31;16.20;99.90
54680;DHT22;40578;53.178;5.846;2023-08-20T06:19:57;16.30;99.90
54680;DHT22;40578;53.178;5.846;2023-08-20T06:22:23;16.60;99.90
54680;DHT22;40578;53.178;5.846;2023-08-20T06:24:48;16.40;99.90
54680;DHT22;40578;53.178;5.846;2023-08-20T06:27:14;16.40;99.90
54680;DHT22;40578;53.178;5.846;2023-08-20T06:29:40;16.60;99.90
54680;DHT22;40578;53.178;5.846;2023-08-20T06:32:05;16.80;99.90
54680;DHT22;40578;53.178;5.846;2023-08-20T06:34:33;16.70;99.90
54680;DHT22;40578;53.178;5.846;2023-08-20T06:36:58;16.90;99.90
54680;DHT22;40578;53.178;5.846;2023-08-20T06:39:24;17.10;99.90
54680;DHT22;40578;53.178;5.846;2023-08-20T06:41:50;17.10;99.90
54680;DHT22;40578;53.178;5.846;2023-08-20T06:44:16;17.10;99.90
54680;DHT22;40578;53.178;5.846;2023-08-20T06:46:42;17.20;99.90
54680;DHT22;40578;53.178;5.846;2023-08-20T06:49:08;17.20;99.90
54680;DHT22;40578;53.178;5.846;2023-08-20T06:51:33;17.30;99.90
54680;DHT22;40578;53.178;5.846;2023-08-20T06:53:59;17.30;99.90
54680;DHT22;40578;53.178;5.846;2023-08-20T06:56:25;17.50;99.90
54680;DHT22;40578;53.178;5.846;2023-08-20T06:58:50;17.50;99.90
54680;DHT22;40578;53.178;5.846;2023-08-20T07:01:16;17.60;99.90
54680;DHT22;40578;53.178;5.846;2023-08-20T07:03:43;17.50;99.90
54680;DHT22;40578;53.178;5.846;2023-08-20T07:06:10;17.70;99.90
54680;DHT22;40578;53.178;5.846;2023-08-20T07:08:37;17.70;99.90
54680;DHT22;40578;53.178;5.846;2023-08-20T07:11:04;17.80;99.90
54680;DHT22;40578;53.178;5.846;2023-08-20T07:13:30;17.20;99.90
54680;DHT22;40578;53.178;5.846;2023-08-20T07:15:55;17.80;99.90
54680;DHT22;40578;53.178;5.846;2023-08-20T07:18:23;17.90;99.90
54680;DHT22;40578;53.178;5.846;2023-08-20T07:20:50;18.00;99.90
54680;DHT22;40578;53.178;5.846;2023-08-20T07:23:16;18.10;99.90
54680;DHT22;40578;53.178;5.846;2023-08-20T07:25:42;18.00;99.90
54680;DHT22;40578;53.178;5.846;2023-08-20T07:28:08;18.10;99.90
54680;DHT22;40578;53.178;5.846;2023-08-20T07:30:35;18.10;99.90
54680;DHT22;40578;53.178;5.846;2023-08-20T07:33:01;18.20;99.90
54680;DHT22;40578;53.178;5.846;2023-08-20T07:35:27;18.20;99.90
54680;DHT22;40578;53.178;5.846;2023-08-20T07:37:52;18.50;99.90
54680;DHT22;40578;53.178;5.846;2023-08-20T07:40:18;18.40;99.90
54680;DHT22;40578;53.178;5.846;2023-08-20T07:42:44;18.50;99.90
54680;DHT22;40578;53.178;5.846;2023-08-20T07:45:10;18.60;99.90
54680;DHT22;40578;53.178;5.846;2023-08-20T07:47:37;18.60;99.90
54680;DHT22;40578;53.178;5.846;2023-08-20T07:50:05;18.80;99.90
54680;DHT22;40578;53.178;5.846;2023-08-20T07:52:32;18.70;99.90
54680;DHT22;40578;53.178;5.846;2023-08-20T07:54:58;18.70;99.90
54680;DHT22;40578;53.178;5.846;2023-08-20T07:57:23;18.70;99.90
54680;DHT22;40578;53.178;5.846;2023-08-20T07:59:49;18.80;99.90
54680;DHT22;40578;53.178;5.846;2023-08-20T08:02:15;18.90;99.90
54680;DHT22;40578;53.178;5.846;2023-08-20T08:04:42;19.10;99.90
54680;DHT22;40578;53.178;5.846;2023-08-20T08:07:07;19.20;99.90
54680;DHT22;40578;53.178;5.846;2023-08-20T08:09:33;19.00;99.90
54680;DHT22;40578;53.178;5.846;2023-08-20T08:11:59;19.00;99.90
54680;DHT22;40578;53.178;5.846;2023-08-20T08:14:25;19.20;99.90
54680;DHT22;40578;53.178;5.846;2023-08-20T08:16:51;19.30;99.90
54680;DHT22;40578;53.178;5.846;2023-08-20T08:19:17;19.60;99.90
54680;DHT22;40578;53.178;5.846;2023-08-20T08:21:44;19.70;99.90
54680;DHT22;40578;53.178;5.846;2023-08-20T08:24:11;19.60;99.90
54680;DHT22;40578;53.178;5.846;2023-08-20T08:26:37;19.60;99.90
54680;DHT22;40578;53.178;5.846;2023-08-20T08:29:03;19.50;99.90
54680;DHT22;40578;53.178;5.846;2023-08-20T08:31:29;19.60;99.90
54680;DHT22;40578;53.178;5.846;2023-08-20T08:33:55;19.70;99.90
54680;DHT22;40578;53.178;5.846;2023-08-20T08:36:20;19.90;99.90
54680;DHT22;40578;53.178;5.846;2023-08-20T08:38:46;19.80;99.90
54680;DHT22;40578;53.178;5.846;2023-08-20T08:41:13;19.70;99.90
54680;DHT22;40578;53.178;5.846;2023-08-20T08:43:39;19.60;99.90
54680;DHT22;40578;53.178;5.846;2023-08-20T08:46:12;19.70;99.90
54680;DHT22;40578;53.178;5.846;2023-08-20T08:48:40;19.80;99.90
54680;DHT22;40578;53.178;5.846;2023-08-20T08:51:07;19.90;99.90
54680;DHT22;40578;53.178;5.846;2023-08-20T08:53:33;19.60;99.90
54680;DHT22;40578;53.178;5.846;2023-08-20T08:55:59;19.60;99.90
54680;DHT22;40578;53.178;5.846;2023-08-20T08:58:25;19.60;99.90
54680;DHT22;40578;53.178;5.846;2023-08-20T09:00:51;19.60;99.90
54680;DHT22;40578;53.178;5.846;2023-08-20T09:03:17;19.70;99.90
54680;DHT22;40578;53.178;5.846;2023-08-20T09:05:59;19.80;99.90
54680;DHT22;40578;53.178;5.846;2023-08-20T09:08:27;19.90;99.90
54680;DHT22;40578;53.178;5.846;2023-08-20T09:10:55;20.10;99.90
54680;DHT22;40578;53.178;5.846;2023-08-20T09:13:35;20.20;99.90
54680;DHT22;40578;53.178;5.846;2023-08-20T09:16:07;20.20;99.90
54680;DHT22;40578;53.178;5.846;2023-08-20T09:18:40;20.20;99.90
54680;DHT22;40578;53.178;5.846;2023-08-20T09:21:07;20.30;99.90
54680;DHT22;40578;53.178;5.846;2023-08-20T09:23:34;20.30;99.90
54680;DHT22;40578;53.178;5.846;2023-08-20T09:26:02;20.30;99.90
54680;DHT22;40578;53.178;5.846;2023-08-20T09:28:28;20.30;99.90
54680;DHT22;40578;53.178;5.846;2023-08-20T09:30:55;20.30;99.90
54680;DHT22;40578;53.178;5.846;2023-08-20T09:33:21;20.50;99.90
54680;DHT22;40578;53.178;5.846;2023-08-20T09:35:51;20.40;99.90
54680;DHT22;40578;53.178;5.846;2023-08-20T09:38:21;20.30;99.90
54680;DHT22;40578;53.178;5.846;2023-08-20T09:40:51;20.40;99.90
54680;DHT22;40578;53.178;5.846;2023-08-20T09:43:18;20.30;99.90
54680;DHT22;40578;53.178;5.846;2023-08-20T09:45:45;20.40;99.90
54680;DHT22;40578;53.178;5.846;2023-08-20T09:48:15;20.40;99.90
54680;DHT22;40578;53.178;5.846;2023-08-20T09:50:43;20.50;99.90
54680;DHT22;40578;53.178;5.846;2023-08-20T09:53:34;20.80;99.90
54680;DHT22;40578;53.178;5.846;2023-08-20T09:56:09;21.00;99.90
54680;DHT22;40578;53.178;5.846;2023-08-20T09:58:38;21.10;99.90
54680;DHT22;40578;53.178;5.846;2023-08-20T10:01:04;21.00;99.90
54680;DHT22;40578;53.178;5.846;2023-08-20T10:03:30;21.00;99.90
54680;DHT22;40578;53.178;5.846;2023-08-20T10:05:57;20.80;99.90
54680;DHT22;40578;53.178;5.846;2023-08-20T10:08:24;20.90;99.90
54680;DHT22;40578;53.178;5.846;2023-08-20T10:10:50;20.90;99.90
54680;DHT22;40578;53.178;5.846;2023-08-20T10:13:17;20.80;99.90
54680;DHT22;40578;53.178;5.846;2023-08-20T10:15:43;20.60;99.90
54680;DHT22;40578;53.178;5.846;2023-08-20T10:18:09;20.70;99.90
54680;DHT22;40578;53.178;5.846;2023-08-20T10:20:35;20.80;99.90
54680;DHT22;40578;53.178;5.846;2023-08-20T10:23:03;20.80;99.90
54680;DHT22;40578;53.178;5.846;2023-08-20T10:25:29;21.10;99.90
54680;DHT22;40578;53.178;5.846;2023-08-20T10:28:10;21.30;99.90
54680;DHT22;40578;53.178;5.846;2023-08-20T10:30:36;21.40;99.90
54680;DHT22;40578;53.178;5.846;2023-08-20T10:33:02;21.60;99.90
54680;DHT22;40578;53.178;5.846;2023-08-20T10:35:47;21.60;99.90
54680;DHT22;40578;53.178;5.846;2023-08-20T10:38:13;21.70;99.90
54680;DHT22;40578;53.178;5.846;2023-08-20T10:40:54;21.40;99.90
54680;DHT22;40578;53.178;5.846;2023-08-20T10:43:38;21.60;99.90
54680;DHT22;40578;53.178;5.846;2023-08-20T10:48:31;21.70;99.90
54680;DHT22;40578;53.178;5.846;2023-08-20T10:50:56;21.80;99.90
54680;DHT22;40578;53.178;5.846;2023-08-20T10:53:22;21.70;99.90
54680;DHT22;40578;53.178;5.846;2023-08-20T10:55:48;21.70;99.90
54680;DHT22;40578;53.178;5.846;2023-08-20T10:58:15;21.70;99.90
54680;DHT22;40578;53.178;5.846;2023-08-20T11:00:42;21.60;99.90
54680;DHT22;40578;53.178;5.846;2023-08-20T11:03:08;21.80;99.90
54680;DHT22;40578;53.178;5.846;2023-08-20T11:05:34;22.00;99.90
54680;DHT22;40578;53.178;5.846;2023-08-20T11:08:00;22.10;99.90
54680;DHT22;40578;53.178;5.846;2023-08-20T11:10:29;22.00;99.90
54680;DHT22;40578;53.178;5.846;2023-08-20T11:12:54;22.10;99.90
54680;DHT22;40578;53.178;5.846;2023-08-20T11:15:20;22.30;99.90
54680;DHT22;40578;53.178;5.846;2023-08-20T11:17:47;22.40;99.90
54680;DHT22;40578;53.178;5.846;2023-08-20T11:20:16;22.30;99.90
54680;DHT22;40578;53.178;5.846;2023-08-20T11:22:41;22.10;99.90
54680;DHT22;40578;53.178;5.846;2023-08-20T11:25:11;22.30;99.90
54680;DHT22;40578;53.178;5.846;2023-08-20T11:27:44;22.30;99.90
54680;DHT22;40578;53.178;5.846;2023-08-20T11:30:10;22.40;99.90
54680;DHT22;40578;53.178;5.846;2023-08-20T11:32:38;22.30;99.90
54680;DHT22;40578;53.178;5.846;2023-08-20T11:35:05;22.30;99.90
54680;DHT22;40578;53.178;5.846;2023-08-20T11:37:32;22.30;99.90
54680;DHT22;40578;53.178;5.846;2023-08-20T11:39:58;22.60;99.90
54680;DHT22;40578;53.178;5.846;2023-08-20T11:42:24;22.30;99.90
54680;DHT22;40578;53.178;5.846;2023-08-20T11:44:50;22.60;99.90
54680;DHT22;40578;53.178;5.846;2023-08-20T11:47:16;22.80;99.90
54680;DHT22;40578;53.178;5.846;2023-08-20T11:49:42;22.90;99.90
54680;DHT22;40578;53.178;5.846;2023-08-20T11:52:08;23.00;99.90
54680;DHT22;40578;53.178;5.846;2023-08-20T11:54:35;23.00;99.90
54680;DHT22;40578;53.178;5.846;2023-08-20T11:57:04;23.00;99.90
54680;DHT22;40578;53.178;5.846;2023-08-20T11:59:30;23.00;99.90
54680;DHT22;40578;53.178;5.846;2023-08-20T12:02:02;23.00;99.90
54680;DHT22;40578;53.178;5.846;2023-08-20T12:04:31;23.00;99.90
54680;DHT22;40578;53.178;5.846;2023-08-20T12:07:08;23.00;99.90
54680;DHT22;40578;53.178;5.846;2023-08-20T12:09:34;23.00;99.90
54680;DHT22;40578;53.178;5.846;2023-08-20T12:12:00;23.00;99.90
54680;DHT22;40578;53.178;5.846;2023-08-20T12:14:26;22.90;99.90
54680;DHT22;40578;53.178;5.846;2023-08-20T12:16:54;23.00;99.90
54680;DHT22;40578;53.178;5.846;2023-08-20T12:19:20;23.10;99.90
54680;DHT22;40578;53.178;5.846;2023-08-20T12:21:45;23.10;99.90
54680;DHT22;40578;53.178;5.846;2023-08-20T12:24:11;23.00;99.90
54680;DHT22;40578;53.178;5.846;2023-08-20T12:26:38;22.90;99.90
54680;DHT22;40578;53.178;5.846;2023-08-20T12:29:04;22.70;99.90
54680;DHT22;40578;53.178;5.846;2023-08-20T12:31:29;22.90;99.90
54680;DHT22;40578;53.178;5.846;2023-08-20T12:33:55;23.00;99.90
54680;DHT22;40578;53.178;5.846;2023-08-20T12:36:21;23.30;99.90
54680;DHT22;40578;53.178;5.846;2023-08-20T12:38:46;23.60;99.90
54680;DHT22;40578;53.178;5.846;2023-08-20T12:41:12;23.50;99.90
54680;DHT22;40578;53.178;5.846;2023-08-20T12:43:38;23.40;99.90
54680;DHT22;40578;53.178;5.846;2023-08-20T12:46:03;23.40;99.90
54680;DHT22;40578;53.178;5.846;2023-08-20T12:48:29;23.40;99.90
54680;DHT22;40578;53.178;5.846;2023-08-20T12:50:55;23.50;99.90
54680;DHT22;40578;53.178;5.846;2023-08-20T12:53:21;23.60;99.90
54680;DHT22;40578;53.178;5.846;2023-08-20T12:55:47;23.70;99.90
54680;DHT22;40578;53.178;5.846;2023-08-20T12:58:12;23.60;99.90
54680;DHT22;40578;53.178;5.846;2023-08-20T13:00:38;23.60;99.90
54680;DHT22;40578;53.178;5.846;2023-08-20T13:03:04;23.60;99.90
54680;DHT22;40578;53.178;5.846;2023-08-20T13:05:30;23.60;99.90
54680;DHT22;40578;53.178;5.846;2023-08-20T13:07:56;23.70;99.90
54680;DHT22;40578;53.178;5.846;2023-08-20T13:10:22;23.60;99.90
54680;DHT22;40578;53.178;5.846;2023-08-20T13:12:53;23.50;99.90
54680;DHT22;40578;53.178;5.846;2023-08-20T13:15:20;23.50;99.90
54680;DHT22;40578;53.178;5.846;2023-08-20T13:17:48;23.50;99.90
54680;DHT22;40578;53.178;5.846;2023-08-20T13:20:14;23.50;99.90
54680;DHT22;40578;53.178;5.846;2023-08-20T13:22:40;23.70;99.90
54680;DHT22;40578;53.178;5.846;2023-08-20T13:25:06;23.80;99.90
54680;DHT22;40578;53.178;5.846;2023-08-20T13:27:32;23.90;99.90
54680;DHT22;40578;53.178;5.846;2023-08-20T13:29:58;24.00;99.90
54680;DHT22;40578;53.178;5.846;2023-08-20T13:32:24;24.00;99.90
54680;DHT22;40578;53.178;5.846;2023-08-20T13:34:50;24.10;99.90
54680;DHT22;40578;53.178;5.846;2023-08-20T13:37:16;24.10;99.90
54680;DHT22;40578;53.178;5.846;2023-08-20T13:39:42;24.10;99.90
54680;DHT22;40578;53.178;5.846;2023-08-20T13:42:08;24.30;99.90
54680;DHT22;40578;53.178;5.846;2023-08-20T13:44:33;24.20;99.90
54680;DHT22;40578;53.178;5.846;2023-08-20T13:46:59;24.20;99.90
54680;DHT22;40578;53.178;5.846;2023-08-20T13:49:25;24.20;99.90
54680;DHT22;40578;53.178;5.846;2023-08-20T13:51:51;24.20;99.90
54680;DHT22;40578;53.178;5.846;2023-08-20T13:54:16;24.30;99.90
54680;DHT22;40578;53.178;5.846;2023-08-20T13:56:42;24.20;99.90
54680;DHT22;40578;53.178;5.846;2023-08-20T13:59:09;24.20;99.90
54680;DHT22;40578;53.178;5.846;2023-08-20T14:01:35;23.80;99.90
54680;DHT22;40578;53.178;5.846;2023-08-20T14:04:01;24.00;99.90
54680;DHT22;40578;53.178;5.846;2023-08-20T14:06:27;24.10;99.90
54680;DHT22;40578;53.178;5.846;2023-08-20T14:08:53;24.10;99.90
54680;DHT22;40578;53.178;5.846;2023-08-20T14:11:19;24.10;99.90
54680;DHT22;40578;53.178;5.846;2023-08-20T14:13:44;24.10;99.90
54680;DHT22;40578;53.178;5.846;2023-08-20T14:16:10;24.10;99.90
54680;DHT22;40578;53.178;5.846;2023-08-20T14:18:36;24.20;99.90
54680;DHT22;40578;53.178;5.846;2023-08-20T14:21:02;24.20;99.90
54680;DHT22;40578;53.178;5.846;2023-08-20T14:23:28;24.20;99.90
54680;DHT22;40578;53.178;5.846;2023-08-20T14:25:55;24.10;99.90
54680;DHT22;40578;53.178;5.846;2023-08-20T14:28:21;24.20;99.90
54680;DHT22;40578;53.178;5.846;2023-08-20T14:30:48;23.90;99.90
54680;DHT22;40578;53.178;5.846;2023-08-20T14:33:15;24.10;99.90
54680;DHT22;40578;53.178;5.846;2023-08-20T14:35:41;24.10;99.90
54680;DHT22;40578;53.178;5.846;2023-08-20T14:38:06;24.00;99.90
54680;DHT22;40578;53.178;5.846;2023-08-20T14:40:37;24.00;99.90
54680;DHT22;40578;53.178;5.846;2023-08-20T14:43:05;24.10;99.90
54680;DHT22;40578;53.178;5.846;2023-08-20T14:45:31;24.20;99.90
54680;DHT22;40578;53.178;5.846;2023-08-20T14:47:57;24.00;99.90
54680;DHT22;40578;53.178;5.846;2023-08-20T14:50:23;24.10;99.90
54680;DHT22;40578;53.178;5.846;2023-08-20T14:52:48;24.00;99.90
54680;DHT22;40578;53.178;5.846;2023-08-20T14:55:18;24.20;99.90
54680;DHT22;40578;53.178;5.846;2023-08-20T14:57:44;24.00;99.90
54680;DHT22;40578;53.178;5.846;2023-08-20T15:00:11;24.00;99.90
54680;DHT22;40578;53.178;5.846;2023-08-20T15:02:40;24.00;99.90
54680;DHT22;40578;53.178;5.846;2023-08-20T15:05:06;23.90;99.90
54680;DHT22;40578;53.178;5.846;2023-08-20T15:07:32;23.90;99.90
54680;DHT22;40578;53.178;5.846;2023-08-20T15:09:57;23.70;99.90
54680;DHT22;40578;53.178;5.846;2023-08-20T15:12:23;23.90;99.90
54680;DHT22;40578;53.178;5.846;2023-08-20T15:14:49;24.00;99.90
54680;DHT22;40578;53.178;5.846;2023-08-20T15:17:14;23.90;99.90
54680;DHT22;40578;53.178;5.846;2023-08-20T15:19:40;23.90;99.90
54680;DHT22;40578;53.178;5.846;2023-08-20T15:22:06;23.80;99.90
54680;DHT22;40578;53.178;5.846;2023-08-20T15:24:31;23.60;99.90
54680;DHT22;40578;53.178;5.846;2023-08-20T15:26:57;23.70;99.90
54680;DHT22;40578;53.178;5.846;2023-08-20T15:29:23;23.80;99.90
54680;DHT22;40578;53.178;5.846;2023-08-20T15:31:48;23.80;99.90
54680;DHT22;40578;53.178;5.846;2023-08-20T15:34:17;23.90;99.90
54680;DHT22;40578;53.178;5.846;2023-08-20T15:36:43;23.80;99.90
54680;DHT22;40578;53.178;5.846;2023-08-20T15:39:08;23.80;99.90